createdAt,value
2018-12-23T00:00:01.797Z,7.67
2018-12-23T00:01:01.827Z,7.62
2018-12-23T00:02:01.859Z,7.63
2018-12-23T00:03:01.886Z,7.67
2018-12-23T00:04:01.919Z,7.70
2018-12-23T00:05:01.949Z,7.67
2018-12-23T00:06:01.979Z,7.73
2018-12-23T00:07:02.010Z,7.69
2018-12-23T00:08:02.038Z,7.67
2018-12-23T00:09:02.069Z,7.67
2018-12-23T00:10:02.101Z,7.71
2018-12-23T00:11:02.130Z,7.70
2018-12-23T00:12:02.162Z,7.71
2018-12-23T00:13:02.191Z,7.67
2018-12-23T00:14:02.222Z,7.63
2018-12-23T00:15:02.252Z,7.67
2018-12-23T00:16:02.283Z,7.70
2018-12-23T00:17:02.313Z,7.63
2018-12-23T00:18:02.347Z,7.67
2018-12-23T00:19:02.372Z,7.74
2018-12-23T00:20:02.405Z,7.73
2018-12-23T00:21:02.436Z,7.70
2018-12-23T00:22:02.467Z,7.71
2018-12-23T00:23:02.494Z,7.71
2018-12-23T00:24:02.524Z,7.70
2018-12-23T00:25:02.557Z,7.69
2018-12-23T00:26:02.588Z,7.67
2018-12-23T00:27:02.618Z,7.63
2018-12-23T00:28:02.648Z,7.55
2018-12-23T00:29:02.678Z,7.54
2018-12-23T00:30:02.708Z,7.55
2018-12-23T00:31:02.739Z,7.55
2018-12-23T00:32:02.769Z,7.50
2018-12-23T00:33:02.801Z,7.55
2018-12-23T00:34:02.829Z,7.55
2018-12-23T00:35:02.861Z,7.57
2018-12-23T00:36:02.888Z,7.54
2018-12-23T00:37:02.921Z,7.63
2018-12-23T00:38:02.950Z,7.58
2018-12-23T00:39:02.982Z,7.52
2018-12-23T00:40:03.011Z,7.57
2018-12-23T00:41:03.041Z,7.55
2018-12-23T00:42:03.073Z,7.48
2018-12-23T00:43:03.100Z,7.52
2018-12-23T00:44:03.142Z,7.52
2018-12-23T00:45:03.162Z,7.51
2018-12-23T00:46:03.225Z,7.54
2018-12-23T00:47:03.222Z,7.52
2018-12-23T00:48:03.267Z,7.54
2018-12-23T00:49:03.303Z,7.55
2018-12-23T00:50:03.350Z,7.51
2018-12-23T00:51:03.348Z,7.44
2018-12-23T00:52:03.375Z,7.51
2018-12-23T00:53:03.406Z,7.55
2018-12-23T00:54:03.438Z,7.51
2018-12-23T00:55:03.466Z,7.55
2018-12-23T00:56:03.496Z,7.57
2018-12-23T00:57:03.527Z,7.57
2018-12-23T00:58:03.558Z,7.63
2018-12-23T00:59:03.699Z,7.63
2018-12-23T01:00:03.618Z,7.60
2018-12-23T01:01:03.650Z,7.62
2018-12-23T01:02:03.678Z,7.66
2018-12-23T01:03:03.710Z,7.74
2018-12-23T01:04:03.740Z,7.74
2018-12-23T01:05:03.770Z,7.73
2018-12-23T01:06:03.800Z,7.63
2018-12-23T01:07:03.831Z,7.66
2018-12-23T01:08:03.861Z,7.70
2018-12-23T01:09:03.890Z,7.69
2018-12-23T01:10:03.921Z,7.55
2018-12-23T01:11:03.950Z,7.63
2018-12-23T01:12:03.983Z,7.52
2018-12-23T01:13:04.011Z,7.48
2018-12-23T01:14:04.042Z,7.51
2018-12-23T01:15:04.074Z,7.52
2018-12-23T01:16:04.102Z,7.58
2018-12-23T01:17:04.132Z,7.54
2018-12-23T01:18:04.163Z,7.39
2018-12-23T01:19:04.194Z,7.44
2018-12-23T01:20:04.223Z,7.37
2018-12-23T01:21:04.253Z,7.36
2018-12-23T01:22:04.286Z,7.44
2018-12-23T01:23:04.314Z,7.47
2018-12-23T01:24:04.345Z,7.47
2018-12-23T01:25:04.374Z,7.37
2018-12-23T01:26:04.405Z,7.42
2018-12-23T01:27:04.436Z,7.48
2018-12-23T01:28:04.465Z,7.48
2018-12-23T01:29:04.497Z,7.37
2018-12-23T01:30:04.526Z,7.33
2018-12-23T01:31:04.556Z,7.29
2018-12-23T01:32:04.586Z,7.24
2018-12-23T01:33:04.617Z,7.19
2018-12-23T01:34:05.447Z,7.23
2018-12-23T01:35:04.682Z,7.24
2018-12-23T01:36:04.708Z,7.23
2018-12-23T01:37:04.738Z,7.19
2018-12-23T01:38:04.769Z,7.23
2018-12-23T01:39:04.798Z,7.26
2018-12-23T01:40:04.828Z,7.19
2018-12-23T01:41:04.873Z,7.16
2018-12-23T01:42:04.890Z,7.21
2018-12-23T01:43:04.921Z,7.19
2018-12-23T01:44:04.951Z,7.05
2018-12-23T01:45:04.980Z,7.08
2018-12-23T01:46:05.020Z,7.15
2018-12-23T01:47:05.041Z,7.12
2018-12-23T01:48:05.072Z,7.09
2018-12-23T01:49:05.102Z,7.21
2018-12-23T01:50:05.131Z,7.23
2018-12-23T01:51:05.160Z,7.21
2018-12-23T01:52:05.193Z,7.16
2018-12-23T01:53:05.221Z,7.19
2018-12-23T01:54:05.250Z,7.08
2018-12-23T01:55:05.281Z,7.05
2018-12-23T01:56:05.310Z,7.04
2018-12-23T01:57:05.341Z,7.07
2018-12-23T01:58:05.374Z,7.07
2018-12-23T01:59:05.401Z,7.11
2018-12-23T02:00:05.432Z,7.08
2018-12-23T02:01:05.462Z,7.04
2018-12-23T02:02:05.493Z,7.01
2018-12-23T02:03:05.521Z,7.05
2018-12-23T02:04:05.551Z,7.07
2018-12-23T02:05:05.583Z,7.07
2018-12-23T02:06:05.614Z,7.04
2018-12-23T02:07:05.642Z,7.04
2018-12-23T02:08:05.672Z,7.05
2018-12-23T02:09:05.702Z,7.07
2018-12-23T02:10:05.732Z,6.91
2018-12-23T02:11:05.762Z,6.99
2018-12-23T02:12:05.795Z,7.07
2018-12-23T02:13:05.822Z,7.04
2018-12-23T02:14:05.853Z,6.99
2018-12-23T02:15:05.881Z,7.05
2018-12-23T02:16:05.911Z,7.08
2018-12-23T02:17:06.058Z,7.11
2018-12-23T02:18:05.972Z,7.04
2018-12-23T02:19:06.002Z,7.08
2018-12-23T02:20:06.032Z,7.08
2018-12-23T02:21:06.062Z,6.94
2018-12-23T02:22:06.093Z,7.00
2018-12-23T02:23:06.120Z,6.90
2018-12-23T02:24:06.152Z,6.97
2018-12-23T02:25:06.184Z,6.93
2018-12-23T02:26:06.214Z,6.99
2018-12-23T02:27:06.241Z,6.99
2018-12-23T02:28:06.271Z,7.07
2018-12-23T02:29:06.301Z,7.05
2018-12-23T02:30:06.334Z,7.05
2018-12-23T02:31:06.363Z,7.00
2018-12-23T02:32:06.391Z,6.94
2018-12-23T02:33:06.422Z,6.90
2018-12-23T02:34:06.452Z,6.99
2018-12-23T02:35:06.480Z,7.00
2018-12-23T02:36:06.512Z,7.07
2018-12-23T02:37:06.545Z,6.97
2018-12-23T02:38:06.574Z,7.00
2018-12-23T02:39:06.602Z,7.01
2018-12-23T02:40:06.630Z,7.08
2018-12-23T02:41:06.661Z,6.99
2018-12-23T02:42:06.689Z,6.90
2018-12-23T02:43:06.719Z,6.87
2018-12-23T02:44:06.751Z,6.83
2018-12-23T02:45:06.781Z,6.87
2018-12-23T02:46:06.812Z,6.86
2018-12-23T02:47:06.838Z,6.97
2018-12-23T02:48:06.872Z,6.82
2018-12-23T02:49:06.898Z,6.87
2018-12-23T02:50:06.931Z,6.96
2018-12-23T02:51:06.961Z,6.94
2018-12-23T02:52:07.010Z,6.89
2018-12-23T02:53:07.018Z,6.87
2018-12-23T02:54:07.050Z,6.86
2018-12-23T02:55:07.078Z,6.83
2018-12-23T02:56:07.108Z,6.90
2018-12-23T02:57:07.138Z,6.83
2018-12-23T02:58:07.170Z,6.82
2018-12-23T02:59:07.198Z,6.86
2018-12-23T03:00:07.228Z,6.75
2018-12-23T03:01:07.265Z,6.78
2018-12-23T03:02:07.287Z,6.87
2018-12-23T03:03:07.315Z,6.87
2018-12-23T03:04:07.347Z,6.91
2018-12-23T03:05:07.377Z,6.90
2018-12-23T03:06:07.410Z,6.90
2018-12-23T03:07:07.434Z,6.91
2018-12-23T03:08:07.553Z,6.89
2018-12-23T03:09:07.495Z,6.91
2018-12-23T03:10:07.526Z,7.00
2018-12-23T03:11:07.555Z,6.89
2018-12-23T03:12:07.587Z,6.89
2018-12-23T03:13:07.615Z,6.90
2018-12-23T03:14:07.646Z,6.91
2018-12-23T03:15:07.674Z,6.91
2018-12-23T03:16:07.702Z,6.93
2018-12-23T03:17:07.732Z,6.89
2018-12-23T03:18:07.764Z,6.82
2018-12-23T03:19:07.793Z,6.87
2018-12-23T03:20:07.822Z,6.86
2018-12-23T03:21:07.852Z,6.93
2018-12-23T03:22:07.882Z,6.94
2018-12-23T03:23:07.910Z,6.89
2018-12-23T03:24:07.940Z,6.89
2018-12-23T03:25:07.973Z,6.89
2018-12-23T03:26:08.001Z,6.94
2018-12-23T03:27:08.029Z,6.93
2018-12-23T03:28:08.059Z,6.90
2018-12-23T03:29:08.090Z,6.89
2018-12-23T03:30:08.121Z,6.96
2018-12-23T03:31:08.149Z,6.91
2018-12-23T03:32:08.180Z,6.90
2018-12-23T03:33:08.210Z,6.89
2018-12-23T03:34:08.238Z,6.91
2018-12-23T03:35:08.266Z,6.91
2018-12-23T03:36:14.951Z,6.91
2018-12-23T03:37:08.327Z,6.91
2018-12-23T03:38:08.358Z,6.90
2018-12-23T03:39:08.388Z,6.91
2018-12-23T03:40:08.417Z,6.82
2018-12-23T03:41:08.446Z,6.87
2018-12-23T03:42:08.475Z,6.86
2018-12-23T03:43:08.511Z,6.89
2018-12-23T03:44:08.535Z,6.87
2018-12-23T03:45:08.566Z,6.86
2018-12-23T03:46:08.595Z,6.90
2018-12-23T03:47:08.625Z,6.87
2018-12-23T03:48:08.658Z,6.83
2018-12-23T03:49:08.687Z,6.82
2018-12-23T03:50:08.714Z,6.87
2018-12-23T03:51:08.746Z,6.91
2018-12-23T03:52:08.774Z,6.90
2018-12-23T03:53:08.804Z,6.93
2018-12-23T03:54:08.836Z,6.91
2018-12-23T03:55:08.860Z,6.91
2018-12-23T03:56:08.890Z,6.91
2018-12-23T03:57:08.922Z,6.91
2018-12-23T03:58:08.954Z,6.89
2018-12-23T03:59:08.989Z,6.94
2018-12-23T04:00:09.011Z,6.90
2018-12-23T04:01:09.040Z,6.87
2018-12-23T04:02:09.071Z,6.89
2018-12-23T04:03:09.098Z,6.90
2018-12-23T04:04:09.128Z,6.91
2018-12-23T04:05:09.158Z,6.94
2018-12-23T04:06:09.189Z,6.82
2018-12-23T04:07:09.219Z,6.90
2018-12-23T04:08:09.248Z,6.89
2018-12-23T04:09:09.278Z,6.96
2018-12-23T04:10:09.308Z,6.94
2018-12-23T04:11:09.336Z,7.08
2018-12-23T04:12:09.366Z,7.07
2018-12-23T04:13:09.395Z,6.96
2018-12-23T04:14:09.433Z,6.91
2018-12-23T04:15:09.456Z,6.93
2018-12-23T04:16:09.485Z,6.86
2018-12-23T04:17:09.514Z,6.91
2018-12-23T04:18:09.544Z,7.00
2018-12-23T04:19:09.573Z,6.94
2018-12-23T04:20:09.602Z,6.91
2018-12-23T04:21:09.635Z,6.96
2018-12-23T04:22:09.664Z,6.99
2018-12-23T04:23:09.694Z,6.97
2018-12-23T04:24:09.722Z,6.96
2018-12-23T04:25:09.756Z,7.00
2018-12-23T04:26:09.783Z,6.99
2018-12-23T04:27:09.814Z,7.04
2018-12-23T04:28:09.841Z,7.04
2018-12-23T04:29:09.872Z,7.05
2018-12-23T04:30:09.902Z,7.08
2018-12-23T04:31:09.932Z,7.05
2018-12-23T04:32:09.959Z,7.01
2018-12-23T04:33:09.990Z,7.08
2018-12-23T04:34:10.018Z,7.05
2018-12-23T04:35:10.049Z,7.09
2018-12-23T04:36:10.092Z,7.00
2018-12-23T04:37:10.115Z,7.08
2018-12-23T04:38:10.137Z,6.96
2018-12-23T04:39:10.175Z,6.94
2018-12-23T04:40:10.198Z,6.94
2018-12-23T04:41:10.226Z,7.00
2018-12-23T04:42:10.258Z,7.04
2018-12-23T04:43:10.287Z,7.08
2018-12-23T04:44:10.317Z,7.01
2018-12-23T04:45:10.346Z,7.00
2018-12-23T04:46:10.378Z,7.12
2018-12-23T04:47:10.406Z,7.01
2018-12-23T04:48:10.437Z,7.04
2018-12-23T04:49:10.464Z,7.09
2018-12-23T04:50:10.494Z,7.09
2018-12-23T04:51:10.525Z,7.05
2018-12-23T04:52:10.553Z,7.05
2018-12-23T04:53:10.591Z,7.07
2018-12-23T04:54:10.613Z,7.11
2018-12-23T04:55:10.643Z,7.04
2018-12-23T04:56:10.674Z,7.07
2018-12-23T04:57:10.701Z,7.05
2018-12-23T04:58:10.738Z,7.00
2018-12-23T04:59:10.762Z,7.05
2018-12-23T05:00:10.791Z,7.01
2018-12-23T05:01:10.821Z,7.08
2018-12-23T05:02:10.851Z,7.19
2018-12-23T05:03:10.879Z,7.19
2018-12-23T05:04:10.910Z,7.19
2018-12-23T05:05:10.939Z,7.24
2018-12-23T05:06:10.970Z,7.26
2018-12-23T05:07:10.999Z,7.15
2018-12-23T05:08:11.048Z,7.16
2018-12-23T05:09:11.060Z,7.15
2018-12-23T05:10:11.087Z,7.18
2018-12-23T05:11:11.117Z,7.21
2018-12-23T05:12:11.148Z,7.26
2018-12-23T05:13:11.178Z,7.19
2018-12-23T05:14:11.207Z,7.14
2018-12-23T05:15:11.238Z,7.18
2018-12-23T05:16:11.274Z,7.21
2018-12-23T05:17:11.295Z,7.21
2018-12-23T05:18:11.328Z,7.23
2018-12-23T05:19:11.355Z,7.27
2018-12-23T05:20:11.385Z,7.26
2018-12-23T05:21:11.416Z,7.24
2018-12-23T05:22:11.446Z,7.24
2018-12-23T05:23:11.478Z,7.23
2018-12-23T05:24:11.505Z,7.24
2018-12-23T05:25:11.534Z,7.19
2018-12-23T05:26:11.564Z,7.29
2018-12-23T05:27:11.594Z,7.26
2018-12-23T05:28:11.625Z,7.27
2018-12-23T05:29:11.655Z,7.24
2018-12-23T05:30:11.684Z,7.23
2018-12-23T05:31:11.715Z,7.23
2018-12-23T05:32:11.743Z,7.39
2018-12-23T05:33:11.774Z,7.26
2018-12-23T05:34:11.805Z,7.33
2018-12-23T05:35:11.833Z,7.37
2018-12-23T05:36:11.862Z,7.34
2018-12-23T05:37:11.893Z,7.39
2018-12-23T05:38:11.925Z,7.36
2018-12-23T05:39:11.953Z,7.36
2018-12-23T05:40:11.983Z,7.41
2018-12-23T05:41:12.014Z,7.44
2018-12-23T05:42:12.042Z,7.41
2018-12-23T05:43:12.072Z,7.48
2018-12-23T05:44:12.102Z,7.37
2018-12-23T05:45:12.133Z,7.36
2018-12-23T05:46:12.174Z,7.41
2018-12-23T05:47:12.192Z,7.36
2018-12-23T05:48:12.223Z,7.29
2018-12-23T05:49:12.251Z,7.27
2018-12-23T05:50:12.282Z,7.39
2018-12-23T05:51:12.310Z,7.30
2018-12-23T05:52:12.345Z,7.41
2018-12-23T05:53:12.372Z,7.36
2018-12-23T05:54:12.402Z,7.42
2018-12-23T05:55:12.431Z,7.44
2018-12-23T05:56:12.461Z,7.37
2018-12-23T05:57:12.491Z,7.41
2018-12-23T05:58:12.520Z,7.51
2018-12-23T05:59:12.550Z,7.42
2018-12-23T06:00:12.585Z,7.42
2018-12-23T06:01:12.611Z,7.41
2018-12-23T06:02:12.640Z,7.51
2018-12-23T06:03:12.671Z,7.50
2018-12-23T06:04:12.700Z,7.51
2018-12-23T06:05:12.732Z,7.57
2018-12-23T06:06:12.762Z,7.47
2018-12-23T06:07:12.791Z,7.48
2018-12-23T06:08:12.820Z,7.54
2018-12-23T06:09:12.850Z,7.51
2018-12-23T06:10:12.883Z,7.48
2018-12-23T06:11:12.913Z,7.54
2018-12-23T06:12:12.943Z,7.57
2018-12-23T06:13:12.974Z,7.42
2018-12-23T06:14:12.999Z,7.51
2018-12-23T06:15:13.030Z,7.60
2018-12-23T06:16:13.059Z,7.51
2018-12-23T06:17:13.090Z,7.54
2018-12-23T06:18:13.121Z,7.51
2018-12-23T06:19:13.154Z,7.57
2018-12-23T06:20:13.180Z,7.48
2018-12-23T06:21:13.211Z,7.54
2018-12-23T06:22:13.240Z,7.54
2018-12-23T06:23:13.269Z,7.52
2018-12-23T06:24:13.298Z,7.51
2018-12-23T06:25:13.331Z,7.55
2018-12-23T06:26:13.360Z,7.62
2018-12-23T06:27:13.390Z,7.55
2018-12-23T06:28:13.423Z,7.63
2018-12-23T06:29:13.449Z,7.55
2018-12-23T06:30:13.481Z,7.54
2018-12-23T06:31:13.514Z,7.69
2018-12-23T06:32:13.545Z,7.66
2018-12-23T06:33:13.573Z,7.54
2018-12-23T06:34:13.601Z,7.69
2018-12-23T06:35:13.629Z,7.55
2018-12-23T06:36:13.738Z,7.57
2018-12-23T06:37:13.689Z,7.69
2018-12-23T06:38:13.720Z,7.63
2018-12-23T06:39:13.749Z,7.58
2018-12-23T06:40:13.778Z,7.71
2018-12-23T06:41:13.808Z,7.67
2018-12-23T06:42:13.842Z,7.73
2018-12-23T06:43:13.871Z,7.67
2018-12-23T06:44:13.899Z,7.63
2018-12-23T06:45:13.930Z,7.69
2018-12-23T06:46:13.962Z,7.73
2018-12-23T06:47:13.989Z,7.70
2018-12-23T06:48:14.022Z,7.62
2018-12-23T06:49:14.066Z,7.69
2018-12-23T06:50:14.080Z,7.67
2018-12-23T06:51:14.110Z,7.60
2018-12-23T06:52:14.140Z,7.73
2018-12-23T06:53:14.171Z,7.67
2018-12-23T06:54:14.201Z,7.69
2018-12-23T06:55:14.235Z,7.69
2018-12-23T06:56:14.260Z,7.67
2018-12-23T06:57:14.288Z,7.71
2018-12-23T06:58:14.319Z,7.71
2018-12-23T06:59:14.348Z,7.71
2018-12-23T07:00:14.379Z,7.79
2018-12-23T07:01:14.410Z,7.76
2018-12-23T07:02:14.443Z,7.74
2018-12-23T07:03:14.471Z,7.74
2018-12-23T07:04:14.501Z,7.73
2018-12-23T07:05:14.532Z,7.74
2018-12-23T07:06:14.584Z,7.81
2018-12-23T07:07:18.582Z,7.71
2018-12-23T07:08:14.619Z,7.66
2018-12-23T07:09:14.651Z,7.69
2018-12-23T07:10:14.682Z,7.71
2018-12-23T07:11:14.709Z,7.69
2018-12-23T07:12:14.743Z,7.73
2018-12-23T07:13:14.771Z,7.67
2018-12-23T07:14:14.802Z,7.69
2018-12-23T07:15:14.832Z,7.74
2018-12-23T07:16:14.862Z,7.77
2018-12-23T07:17:14.892Z,7.76
2018-12-23T07:18:14.922Z,7.77
2018-12-23T07:19:14.956Z,7.76
2018-12-23T07:20:14.981Z,7.74
2018-12-23T07:21:15.013Z,7.89
2018-12-23T07:22:15.043Z,7.82
2018-12-23T07:23:15.071Z,7.79
2018-12-23T07:24:15.102Z,7.81
2018-12-23T07:25:15.131Z,7.77
2018-12-23T07:26:15.165Z,7.77
2018-12-23T07:27:15.193Z,7.86
2018-12-23T07:28:15.221Z,7.82
2018-12-23T07:29:15.252Z,7.84
2018-12-23T07:30:15.282Z,7.82
2018-12-23T07:31:15.312Z,7.85
2018-12-23T07:32:15.344Z,7.85
2018-12-23T07:33:15.375Z,7.84
2018-12-23T07:34:15.407Z,7.82
2018-12-23T07:35:15.434Z,7.81
2018-12-23T07:36:15.462Z,7.82
2018-12-23T07:37:15.495Z,7.85
2018-12-23T07:38:15.526Z,7.91
2018-12-23T07:39:15.553Z,7.86
2018-12-23T07:40:15.584Z,7.85
2018-12-23T07:41:15.614Z,7.96
2018-12-23T07:42:15.645Z,7.96
2018-12-23T07:43:15.674Z,7.91
2018-12-23T07:44:15.703Z,7.89
2018-12-23T07:45:15.735Z,7.94
2018-12-23T07:46:15.765Z,7.95
2018-12-23T07:47:15.795Z,7.92
2018-12-23T07:48:15.824Z,7.88
2018-12-23T07:49:15.854Z,7.91
2018-12-23T07:50:15.885Z,7.82
2018-12-23T07:51:15.915Z,7.85
2018-12-23T07:52:15.949Z,7.85
2018-12-23T07:53:15.975Z,7.91
2018-12-23T07:54:16.005Z,7.92
2018-12-23T07:55:16.035Z,7.89
2018-12-23T07:56:16.071Z,7.91
2018-12-23T07:57:16.096Z,7.99
2018-12-23T07:58:16.125Z,8.00
2018-12-23T07:59:16.156Z,7.91
2018-12-23T08:00:16.185Z,7.91
2018-12-23T08:01:16.217Z,7.86
2018-12-23T08:02:16.246Z,7.86
2018-12-23T08:03:16.275Z,7.94
2018-12-23T08:04:16.307Z,7.94
2018-12-23T08:05:16.336Z,7.91
2018-12-23T08:06:16.366Z,7.95
2018-12-23T08:07:16.397Z,7.99
2018-12-23T08:08:16.429Z,7.92
2018-12-23T08:09:16.457Z,7.95
2018-12-23T08:10:16.488Z,7.86
2018-12-23T08:11:16.517Z,7.91
2018-12-23T08:12:16.550Z,7.88
2018-12-23T08:13:16.582Z,8.07
2018-12-23T08:14:16.609Z,7.95
2018-12-23T08:15:16.637Z,8.00
2018-12-23T08:16:16.669Z,7.96
2018-12-23T08:17:16.699Z,7.91
2018-12-23T08:18:16.730Z,8.00
2018-12-23T08:19:16.759Z,7.88
2018-12-23T08:20:16.795Z,7.95
2018-12-23T08:21:16.823Z,7.86
2018-12-23T08:22:16.850Z,7.94
2018-12-23T08:23:16.880Z,8.00
2018-12-23T08:24:16.910Z,7.94
2018-12-23T08:25:16.943Z,7.89
2018-12-23T08:26:16.972Z,7.92
2018-12-23T08:27:16.999Z,7.94
2018-12-23T08:28:17.029Z,8.03
2018-12-23T08:29:17.062Z,8.02
2018-12-23T08:30:17.090Z,8.06
2018-12-23T08:31:17.120Z,8.02
2018-12-23T08:32:17.152Z,8.04
2018-12-23T08:33:17.182Z,8.03
2018-12-23T08:34:17.214Z,8.04
2018-12-23T08:35:17.241Z,7.96
2018-12-23T08:36:17.273Z,8.00
2018-12-23T08:37:17.301Z,8.04
2018-12-23T08:38:17.333Z,8.04
2018-12-23T08:39:17.361Z,8.03
2018-12-23T08:40:17.392Z,8.04
2018-12-23T08:41:17.426Z,8.09
2018-12-23T08:42:17.452Z,8.04
2018-12-23T08:43:17.483Z,8.07
2018-12-23T08:44:17.512Z,8.06
2018-12-23T08:45:17.543Z,8.09
2018-12-23T08:46:17.576Z,8.06
2018-12-23T08:47:17.609Z,8.06
2018-12-23T08:48:17.632Z,8.04
2018-12-23T08:49:17.663Z,8.03
2018-12-23T08:50:17.694Z,8.03
2018-12-23T08:51:17.726Z,8.13
2018-12-23T08:52:17.758Z,8.18
2018-12-23T08:53:17.785Z,8.22
2018-12-23T08:54:17.816Z,8.12
2018-12-23T08:55:17.845Z,8.07
2018-12-23T08:56:17.874Z,8.17
2018-12-23T08:57:17.905Z,8.22
2018-12-23T08:58:17.937Z,8.18
2018-12-23T08:59:17.968Z,8.18
2018-12-23T09:00:17.996Z,8.20
2018-12-23T09:01:18.027Z,8.24
2018-12-23T09:02:18.059Z,8.18
2018-12-23T09:03:18.970Z,8.34
2018-12-23T09:04:18.117Z,8.24
2018-12-23T09:05:18.147Z,8.34
2018-12-23T09:06:18.178Z,8.32
2018-12-23T09:07:18.208Z,8.34
2018-12-23T09:08:18.239Z,8.27
2018-12-23T09:09:18.269Z,8.32
2018-12-23T09:10:18.302Z,8.32
2018-12-23T09:11:18.329Z,8.22
2018-12-23T09:12:18.359Z,8.14
2018-12-23T09:13:18.390Z,8.27
2018-12-23T09:14:18.422Z,8.22
2018-12-23T09:15:18.451Z,8.24
2018-12-23T09:16:18.481Z,8.27
2018-12-23T09:17:18.510Z,8.29
2018-12-23T09:18:19.412Z,8.34
2018-12-23T09:19:18.573Z,8.34
2018-12-23T09:20:18.603Z,8.36
2018-12-23T09:21:18.633Z,8.37
2018-12-23T09:22:19.767Z,8.39
2018-12-23T09:23:18.693Z,8.42
2018-12-23T09:24:18.804Z,8.36
2018-12-23T09:25:18.753Z,8.43
2018-12-23T09:26:18.786Z,8.39
2018-12-23T09:27:18.818Z,8.39
2018-12-23T09:28:18.850Z,8.45
2018-12-23T09:29:18.878Z,8.43
2018-12-23T09:30:18.911Z,8.47
2018-12-23T09:31:18.937Z,8.42
2018-12-23T09:32:18.970Z,8.45
2018-12-23T09:33:18.997Z,8.42
2018-12-23T09:34:19.027Z,8.45
2018-12-23T09:35:19.057Z,8.46
2018-12-23T09:36:19.092Z,8.55
2018-12-23T09:37:19.120Z,8.68
2018-12-23T09:38:19.150Z,8.65
2018-12-23T09:39:19.181Z,8.73
2018-12-23T09:40:19.210Z,8.76
2018-12-23T09:41:19.251Z,8.78
2018-12-23T09:42:19.274Z,8.71
2018-12-23T09:43:19.302Z,8.80
2018-12-23T09:44:19.331Z,8.73
2018-12-23T09:45:19.362Z,8.68
2018-12-23T09:46:19.394Z,8.76
2018-12-23T09:47:19.423Z,8.80
2018-12-23T09:48:19.453Z,8.78
2018-12-23T09:49:19.484Z,8.76
2018-12-23T09:50:19.516Z,8.79
2018-12-23T09:51:19.545Z,8.75
2018-12-23T09:52:19.578Z,8.80
2018-12-23T09:53:19.607Z,8.83
2018-12-23T09:54:19.638Z,8.79
2018-12-23T09:55:19.667Z,8.80
2018-12-23T09:56:19.698Z,8.79
2018-12-23T09:57:19.731Z,8.82
2018-12-23T09:58:19.760Z,8.80
2018-12-23T09:59:19.790Z,8.75
2018-12-23T10:00:19.822Z,8.78
2018-12-23T10:01:19.851Z,8.75
2018-12-23T10:02:19.884Z,8.85
2018-12-23T10:03:19.913Z,8.75
2018-12-23T10:04:19.946Z,8.71
2018-12-23T10:05:19.976Z,8.67
2018-12-23T10:06:20.005Z,8.78
2018-12-23T10:07:20.034Z,8.78
2018-12-23T10:08:20.070Z,8.78
2018-12-23T10:09:20.097Z,8.75
2018-12-23T10:10:28.170Z,8.73
2018-12-23T10:11:20.158Z,8.65
2018-12-23T10:12:20.192Z,8.73
2018-12-23T10:13:20.219Z,8.79
2018-12-23T10:14:20.251Z,8.91
2018-12-23T10:15:20.280Z,8.85
2018-12-23T10:16:20.340Z,8.80
2018-12-23T10:17:20.343Z,8.83
2018-12-23T10:18:20.372Z,8.93
2018-12-23T10:19:20.402Z,8.98
2018-12-23T10:20:20.433Z,8.94
2018-12-23T10:21:20.465Z,8.88
2018-12-23T10:22:20.496Z,8.85
2018-12-23T10:23:20.525Z,8.86
2018-12-23T10:24:20.557Z,8.89
2018-12-23T10:25:20.586Z,8.96
2018-12-23T10:26:20.618Z,8.89
2018-12-23T10:27:20.657Z,8.88
2018-12-23T10:28:20.679Z,8.88
2018-12-23T10:29:20.710Z,8.88
2018-12-23T10:30:20.740Z,8.91
2018-12-23T10:31:20.771Z,8.88
2018-12-23T10:32:20.801Z,8.88
2018-12-23T10:33:20.846Z,8.94
2018-12-23T10:34:20.864Z,8.80
2018-12-23T10:35:20.893Z,8.94
2018-12-23T10:36:20.924Z,8.88
2018-12-23T10:37:20.954Z,8.89
2018-12-23T10:38:20.985Z,9.03
2018-12-23T10:39:21.018Z,9.19
2018-12-23T10:40:21.050Z,9.16
2018-12-23T10:41:21.076Z,9.27
2018-12-23T10:42:21.109Z,9.31
2018-12-23T10:43:21.138Z,9.24
2018-12-23T10:44:21.171Z,9.34
2018-12-23T10:45:21.200Z,9.40
2018-12-23T10:46:21.231Z,9.41
2018-12-23T10:47:21.261Z,9.59
2018-12-23T10:48:21.291Z,9.56
2018-12-23T10:49:21.323Z,9.56
2018-12-23T10:50:21.352Z,9.62
2018-12-23T10:51:21.383Z,9.58
2018-12-23T10:52:21.416Z,9.52
2018-12-23T10:53:21.445Z,9.52
2018-12-23T10:54:21.476Z,9.52
2018-12-23T10:55:21.508Z,9.60
2018-12-23T10:56:21.537Z,9.60
2018-12-23T10:57:21.569Z,9.62
2018-12-23T10:58:21.600Z,9.68
2018-12-23T10:59:21.632Z,9.63
2018-12-23T11:00:21.662Z,9.71
2018-12-23T11:01:21.692Z,9.68
2018-12-23T11:02:21.724Z,9.70
2018-12-23T11:03:21.755Z,9.75
2018-12-23T11:04:21.787Z,9.73
2018-12-23T11:05:21.817Z,9.80
2018-12-23T11:06:21.913Z,9.77
2018-12-23T11:07:21.878Z,9.85
2018-12-23T11:08:26.929Z,9.77
2018-12-23T11:09:21.941Z,9.77
2018-12-23T11:10:21.972Z,9.78
2018-12-23T11:11:22.003Z,9.86
2018-12-23T11:12:22.033Z,9.83
2018-12-23T11:13:22.065Z,9.89
2018-12-23T11:14:22.095Z,9.89
2018-12-23T11:15:22.126Z,9.83
2018-12-23T11:16:22.158Z,9.77
2018-12-23T11:17:22.203Z,9.77
2018-12-23T11:18:22.220Z,9.88
2018-12-23T11:19:22.251Z,9.80
2018-12-23T11:20:22.286Z,9.86
2018-12-23T11:21:22.321Z,9.77
2018-12-23T11:22:22.350Z,9.75
2018-12-23T11:23:22.377Z,9.81
2018-12-23T11:24:22.408Z,9.89
2018-12-23T11:25:22.439Z,9.95
2018-12-23T11:26:22.470Z,9.88
2018-12-23T11:27:22.502Z,9.92
2018-12-23T11:28:22.533Z,9.92
2018-12-23T11:29:22.564Z,9.75
2018-12-23T11:30:22.596Z,9.83
2018-12-23T11:31:22.626Z,9.81
2018-12-23T11:32:22.658Z,9.88
2018-12-23T11:33:22.689Z,9.83
2018-12-23T11:34:22.720Z,9.77
2018-12-23T11:35:22.752Z,9.71
2018-12-23T11:36:22.784Z,9.68
2018-12-23T11:37:22.822Z,9.62
2018-12-23T11:38:22.846Z,9.50
2018-12-23T11:39:22.879Z,9.50
2018-12-23T11:40:22.909Z,9.53
2018-12-23T11:41:22.940Z,9.60
2018-12-23T11:42:22.970Z,9.49
2018-12-23T11:43:23.002Z,9.52
2018-12-23T11:44:23.033Z,9.53
2018-12-23T11:45:23.066Z,9.38
2018-12-23T11:46:23.096Z,9.41
2018-12-23T11:47:23.127Z,9.35
2018-12-23T11:48:23.161Z,9.42
2018-12-23T11:49:23.189Z,9.41
2018-12-23T11:50:23.221Z,9.42
2018-12-23T11:51:23.254Z,9.41
2018-12-23T11:52:23.286Z,9.55
2018-12-23T11:53:23.317Z,9.50
2018-12-23T11:54:23.346Z,9.55
2018-12-23T11:55:23.388Z,9.48
2018-12-23T11:56:23.408Z,9.42
2018-12-23T11:57:23.442Z,9.49
2018-12-23T11:58:23.471Z,9.48
2018-12-23T11:59:23.500Z,9.42
2018-12-23T12:00:23.541Z,9.34
2018-12-23T12:01:23.565Z,9.34
2018-12-23T12:02:23.596Z,9.27
2018-12-23T12:03:23.625Z,9.27
2018-12-23T12:04:23.657Z,9.24
2018-12-23T12:05:23.689Z,9.34
2018-12-23T12:06:23.720Z,9.23
2018-12-23T12:07:23.750Z,9.32
2018-12-23T12:08:23.782Z,9.26
2018-12-23T12:09:23.812Z,9.20
2018-12-23T12:10:23.844Z,9.22
2018-12-23T12:11:23.874Z,9.16
2018-12-23T12:12:23.905Z,9.17
2018-12-23T12:13:23.937Z,9.12
2018-12-23T12:14:23.968Z,9.16
2018-12-23T12:15:23.999Z,9.16
2018-12-23T12:16:24.029Z,9.12
2018-12-23T12:17:25.295Z,9.17
2018-12-23T12:18:24.096Z,9.22
2018-12-23T12:19:24.125Z,9.17
2018-12-23T12:20:24.153Z,9.10
2018-12-23T12:21:24.184Z,9.20
2018-12-23T12:22:24.219Z,9.22
2018-12-23T12:23:24.246Z,9.16
2018-12-23T12:24:24.284Z,9.16
2018-12-23T12:25:24.309Z,9.08
2018-12-23T12:26:24.343Z,9.17
2018-12-23T12:27:24.377Z,9.06
2018-12-23T12:28:24.402Z,9.16
2018-12-23T12:29:24.433Z,9.06
2018-12-23T12:30:24.465Z,8.98
2018-12-23T12:31:24.496Z,8.94
2018-12-23T12:32:24.526Z,8.89
2018-12-23T12:33:24.560Z,8.97
2018-12-23T12:34:24.595Z,8.91
2018-12-23T12:35:24.618Z,8.91
2018-12-23T12:36:24.649Z,8.88
2018-12-23T12:37:24.687Z,8.82
2018-12-23T12:38:24.712Z,8.93
2018-12-23T12:39:24.742Z,8.91
2018-12-23T12:40:24.775Z,8.91
2018-12-23T12:41:24.803Z,8.94
2018-12-23T12:42:24.836Z,8.96
2018-12-23T12:43:24.867Z,8.98
2018-12-23T12:44:24.897Z,9.00
2018-12-23T12:45:24.932Z,8.86
2018-12-23T12:46:24.960Z,8.80
2018-12-23T12:47:24.989Z,8.89
2018-12-23T12:48:25.025Z,8.83
2018-12-23T12:49:25.055Z,8.88
2018-12-23T12:50:25.082Z,8.85
2018-12-23T12:51:25.114Z,8.86
2018-12-23T12:52:25.146Z,8.80
2018-12-23T12:53:25.222Z,8.89
2018-12-23T12:54:25.206Z,8.86
2018-12-23T12:55:25.237Z,8.80
2018-12-23T12:56:25.270Z,8.76
2018-12-23T12:57:25.302Z,8.75
2018-12-23T12:58:25.329Z,8.70
2018-12-23T12:59:25.360Z,8.64
2018-12-23T13:00:25.392Z,8.73
2018-12-23T13:01:25.425Z,8.60
2018-12-23T13:02:25.454Z,8.64
2018-12-23T13:03:25.483Z,8.73
2018-12-23T13:04:25.515Z,8.65
2018-12-23T13:05:25.547Z,8.68
2018-12-23T13:06:25.578Z,8.75
2018-12-23T13:07:25.607Z,8.71
2018-12-23T13:08:25.644Z,8.75
2018-12-23T13:09:25.669Z,8.75
2018-12-23T13:10:25.703Z,8.73
2018-12-23T13:11:25.731Z,8.76
2018-12-23T13:12:25.825Z,8.76
2018-12-23T13:13:25.798Z,8.71
2018-12-23T13:14:25.823Z,8.73
2018-12-23T13:15:25.853Z,8.61
2018-12-23T13:16:25.886Z,8.58
2018-12-23T13:17:25.918Z,8.65
2018-12-23T13:18:25.947Z,8.60